Time;durP1;ratioP1;P1;durP2;ratioP2;P2;SDS_P1;SDS_P2;PMS_P1;PMS_P2;Temp;Humidity;BMP_temperature;BMP_pressure;BME280_temperature;BME280_humidity;BME280_pressure;Samples;Min_cycle;Max_cycle;Signal;HPM_P1;HPM_P2
2023/03/02 00:00:14;;;;;;;11.55;10.20;;;;;;;;;;1051499;28;20019;-56
2023/03/02 00:00:46;;;;;;;11.75;9.88;;;;;;;;;;1051477;28;20020;-56
2023/03/02 00:01:18;;;;;;;11.05;9.52;;;;;;;;;;1051744;28;20016;-55
2023/03/02 00:01:49;;;;;;;11.88;10.60;;;;;;;;;;1051649;28;20020;-55
2023/03/02 00:02:21;;;;;;;11.03;9.87;;;;;;;;;;1051732;28;20123;-56
2023/03/02 00:02:52;;;;;;;12.00;10.80;;;;;;;;;;1051712;28;20235;-55
2023/03/02 00:05:41;;;;;;;11.02;9.38;;;;;;;;;;1049115;28;20027;-55
2023/03/02 00:06:12;;;;;;;11.38;9.52;;;;;;;;;;1051708;28;20463;-55
2023/03/02 00:06:43;;;;;;;12.18;10.75;;;;;;;;;;1047060;28;20466;-55
2023/03/02 00:07:18;;;;;;;11.95;10.60;;;;;;;;;;1046339;28;20037;-56
2023/03/02 00:07:49;;;;;;;12.82;10.73;;;;;;;;;;1043227;28;20041;-56
2023/03/02 00:08:20;;;;;;;12.40;10.27;;;;;;;;;;1044130;28;20013;-56
2023/03/02 00:08:52;;;;;;;12.43;11.15;;;;;;;;;;1051857;28;20012;-56
2023/03/02 00:09:23;;;;;;;12.30;10.95;;;;;;;;;;1051685;28;20008;-54
2023/03/02 00:09:54;;;;;;;12.93;11.20;;;;;;;;;;1051938;28;20035;-55
2023/03/02 00:10:25;;;;;;;12.23;10.95;;;;;;;;;;1051365;28;20048;-54
2023/03/02 00:10:57;;;;;;;12.23;10.60;;;;;;;;;;1051541;28;20028;-55
2023/03/02 00:11:30;;;;;;;11.85;10.60;;;;;;;;;;1051599;28;20016;-55
2023/03/02 00:12:01;;;;;;;13.25;11.20;;;;;;;;;;1051843;28;20024;-55
2023/03/02 00:12:32;;;;;;;13.25;11.13;;;;;;;;;;1050778;28;20021;-56
2023/03/02 00:13:04;;;;;;;12.10;10.88;;;;;;;;;;1051806;28;20024;-56
2023/03/02 00:13:36;;;;;;;13.30;11.70;;;;;;;;;;1050203;28;20087;-56
2023/03/02 00:14:07;;;;;;;12.77;11.48;;;;;;;;;;1043575;28;20013;-56
2023/03/02 00:14:38;;;;;;;12.85;10.98;;;;;;;;;;1047005;28;20017;-56
2023/03/02 00:15:09;;;;;;;12.27;10.98;;;;;;;;;;1047109;28;20095;-55
2023/03/02 00:15:40;;;;;;;13.05;11.65;;;;;;;;;;1047296;28;20043;-56
2023/03/02 00:16:11;;;;;;;13.45;11.95;;;;;;;;;;1051847;28;20023;-55
2023/03/02 00:16:42;;;;;;;13.55;12.02;;;;;;;;;;1051582;28;20073;-55
2023/03/02 00:17:13;;;;;;;13.55;12.23;;;;;;;;;;1051586;28;20040;-56
2023/03/02 00:17:44;;;;;;;12.43;11.13;;;;;;;;;;1049525;28;20014;-55
2023/03/02 00:18:15;;;;;;;13.70;12.00;;;;;;;;;;1047634;28;20095;-55
2023/03/02 00:18:46;;;;;;;13.13;11.75;;;;;;;;;;1049679;28;20013;-56
2023/03/02 00:19:17;;;;;;;13.90;12.38;;;;;;;;;;1050052;28;20024;-55
2023/03/02 00:19:48;;;;;;;13.48;12.18;;;;;;;;;;1047367;28;20104;-55
2023/03/02 00:20:19;;;;;;;12.85;11.55;;;;;;;;;;1049170;28;20027;-56
2023/03/02 00:20:50;;;;;;;13.15;11.75;;;;;;;;;;1050984;28;20023;-56
2023/03/02 00:21:23;;;;;;;12.32;10.50;;;;;;;;;;1051703;28;20135;-56
2023/03/02 00:21:54;;;;;;;14.90;11.73;;;;;;;;;;1046835;28;20435;-56
2023/03/02 00:22:25;;;;;;;13.13;11.65;;;;;;;;;;1047299;28;20467;-54
2023/03/02 00:22:56;;;;;;;12.32;11.07;;;;;;;;;;1043231;28;20029;-56
2023/03/02 00:23:27;;;;;;;13.85;12.32;;;;;;;;;;1043421;28;20025;-56
2023/03/02 00:23:58;;;;;;;14.15;12.65;;;;;;;;;;1051478;28;20758;-56
2023/03/02 00:24:29;;;;;;;13.60;12.18;;;;;;;;;;1050886;28;20463;-55
2023/03/02 00:25:00;;;;;;;13.98;12.48;;;;;;;;;;1051464;28;20016;-56
2023/03/02 00:25:31;;;;;;;13.85;12.43;;;;;;;;;;1051641;28;20024;-55
2023/03/02 00:26:02;;;;;;;14.45;13.05;;;;;;;;;;1051602;28;20111;-56
2023/03/02 00:26:33;;;;;;;15.00;13.40;;;;;;;;;;1051572;28;20028;-55
2023/03/02 00:27:04;;;;;;;14.20;12.10;;;;;;;;;;1048302;28;20108;-56
2023/03/02 00:27:35;;;;;;;15.25;13.40;;;;;;;;;;1048090;28;20028;-55
2023/03/02 00:28:06;;;;;;;14.57;13.07;;;;;;;;;;1051702;28;20047;-56
2023/03/02 00:28:37;;;;;;;15.05;12.73;;;;;;;;;;1049560;28;20020;-56
2023/03/02 00:29:08;;;;;;;14.68;13.18;;;;;;;;;;1049506;28;20073;-56
2023/03/02 00:29:41;;;;;;;15.45;13.90;;;;;;;;;;1050403;28;20048;-55
2023/03/02 00:30:13;;;;;;;13.73;12.32;;;;;;;;;;1051646;28;20060;-54
2023/03/02 00:30:44;;;;;;;14.38;12.98;;;;;;;;;;1047599;28;20902;-56
2023/03/02 00:31:15;;;;;;;14.48;13.07;;;;;;;;;;1049499;28;20837;-56
2023/03/02 00:31:46;;;;;;;15.82;12.57;;;;;;;;;;1051739;28;20313;-56
2023/03/02 00:32:17;;;;;;;15.57;13.88;;;;;;;;;;1051715;28;20753;-55
2023/03/02 00:32:48;;;;;;;14.95;13.35;;;;;;;;;;1051539;28;20024;-55
2023/03/02 00:33:19;;;;;;;14.68;13.18;;;;;;;;;;1051776;28;20017;-55
2023/03/02 00:33:53;;;;;;;14.85;12.73;;;;;;;;;;1051702;28;20108;-55
2023/03/02 00:34:24;;;;;;;15.10;13.57;;;;;;;;;;1051552;28;20024;-55
2023/03/02 00:34:55;;;;;;;15.45;13.77;;;;;;;;;;1051351;28;20020;-56
2023/03/02 00:35:26;;;;;;;16.17;14.45;;;;;;;;;;1051624;28;20023;-56
2023/03/02 00:35:57;;;;;;;14.27;12.82;;;;;;;;;;1051699;28;20128;-55
2023/03/02 00:36:28;;;;;;;15.60;13.90;;;;;;;;;;1047035;28;20761;-56
2023/03/02 00:36:59;;;;;;;15.50;13.90;;;;;;;;;;1046961;28;20910;-55
2023/03/02 00:37:30;;;;;;;16.30;14.10;;;;;;;;;;1047248;28;20017;-56
2023/03/02 00:38:01;;;;;;;15.63;13.82;;;;;;;;;;1047220;28;20032;-56
2023/03/02 00:38:32;;;;;;;14.98;13.38;;;;;;;;;;1051607;28;20035;-55
2023/03/02 00:39:03;;;;;;;16.13;14.23;;;;;;;;;;1047218;28;20032;-55
2023/03/02 00:39:34;;;;;;;16.33;14.63;;;;;;;;;;1048076;28;20013;-55
2023/03/02 00:40:06;;;;;;;15.80;13.90;;;;;;;;;;1051155;28;20044;-56
2023/03/02 00:40:37;;;;;;;14.48;12.98;;;;;;;;;;1051382;28;20803;-57
2023/03/02 00:41:08;;;;;;;14.40;12.98;;;;;;;;;;1051164;28;20702;-55
2023/03/02 00:41:38;;;;;;;15.82;14.15;;;;;;;;;;1051453;28;20012;-56
2023/03/02 00:42:09;;;;;;;15.25;13.65;;;;;;;;;;1051169;28;20048;-56
2023/03/02 00:42:40;;;;;;;16.60;14.02;;;;;;;;;;1051391;28;20035;-56
2023/03/02 00:43:12;;;;;;;15.32;13.45;;;;;;;;;;1048577;28;20111;-56
2023/03/02 00:43:43;;;;;;;15.05;13.52;;;;;;;;;;1047246;28;20020;-55
2023/03/02 00:44:16;;;;;;;16.05;14.32;;;;;;;;;;1051163;28;20016;-56
2023/03/02 00:44:47;;;;;;;14.57;13.07;;;;;;;;;;1048673;28;20396;-55
2023/03/02 00:45:18;;;;;;;15.90;14.18;;;;;;;;;;1051198;28;20047;-56
2023/03/02 00:45:49;;;;;;;16.60;14.80;;;;;;;;;;1051174;28;20027;-55
2023/03/02 00:46:21;;;;;;;14.95;13.40;;;;;;;;;;1051136;28;20031;-55
2023/03/02 00:46:52;;;;;;;16.05;14.35;;;;;;;;;;1051061;28;20635;-56
2023/03/02 00:47:23;;;;;;;15.18;13.57;;;;;;;;;;1051295;28;20107;-56
2023/03/02 00:47:54;;;;;;;16.98;14.63;;;;;;;;;;1051414;28;20057;-56
2023/03/02 00:48:25;;;;;;;15.65;14.00;;;;;;;;;;1051146;28;20217;-55
2023/03/02 00:48:56;;;;;;;15.88;14.18;;;;;;;;;;1047410;28;20024;-56
2023/03/02 00:49:27;;;;;;;15.55;13.98;;;;;;;;;;1047077;28;20029;-56
2023/03/02 00:49:58;;;;;;;15.70;14.10;;;;;;;;;;1047156;28;20059;-56
2023/03/02 00:50:29;;;;;;;15.75;14.15;;;;;;;;;;1049823;28;20024;-56
2023/03/02 00:51:00;;;;;;;15.85;14.30;;;;;;;;;;1051453;28;20039;-55
2023/03/02 00:51:31;;;;;;;16.17;14.48;;;;;;;;;;1047644;28;20020;-56
2023/03/02 00:52:03;;;;;;;15.52;13.93;;;;;;;;;;1049225;28;20120;-56
2023/03/02 00:52:34;;;;;;;15.50;13.90;;;;;;;;;;1051285;28;20024;-56
2023/03/02 00:53:05;;;;;;;16.02;14.35;;;;;;;;;;1051344;28;20103;-56
2023/03/02 00:53:36;;;;;;;15.80;14.30;;;;;;;;;;1051252;28;20031;-55
2023/03/02 00:54:07;;;;;;;16.83;14.02;;;;;;;;;;1051441;28;20027;-56
2023/03/02 00:54:38;;;;;;;17.05;15.32;;;;;;;;;;1051274;28;20024;-55
2023/03/02 00:55:09;;;;;;;16.13;14.43;;;;;;;;;;1046378;28;20024;-56
2023/03/02 00:55:40;;;;;;;16.42;14.70;;;;;;;;;;1046695;28;20074;-56
2023/03/02 00:56:11;;;;;;;16.05;14.45;;;;;;;;;;1046775;28;20025;-56
2023/03/02 00:56:42;;;;;;;16.42;14.73;;;;;;;;;;1046979;28;20074;-55
2023/03/02 00:57:13;;;;;;;16.23;14.52;;;;;;;;;;1050864;28;20479;-55
2023/03/02 00:57:53;;;;;;;16.40;14.70;;;;;;;;;;1051093;28;20472;-56
2023/03/02 00:58:25;;;;;;;19.05;16.88;;;;;;;;;;1051321;28;20035;-55
2023/03/02 00:58:56;;;;;;;16.95;15.15;;;;;;;;;;1050873;28;20035;-56
2023/03/02 00:59:27;;;;;;;17.00;15.23;;;;;;;;;;1051246;28;20099;-56
2023/03/02 00:59:58;;;;;;;16.02;14.32;;;;;;;;;;1047067;28;20016;-56
2023/03/02 01:00:30;;;;;;;17.58;15.57;;;;;;;;;;1049951;28;20027;-56
2023/03/02 01:01:05;;;;;;;15.93;14.05;;;;;;;;;;1051197;28;20133;-55
2023/03/02 01:01:37;;;;;;;16.33;14.63;;;;;;;;;;1051369;28;20497;-55
2023/03/02 01:02:08;;;;;;;16.33;14.55;;;;;;;;;;1050929;28;20024;-56
2023/03/02 01:02:42;;;;;;;17.92;16.02;;;;;;;;;;1051390;28;20035;-56
2023/03/02 01:03:13;;;;;;;15.07;13.48;;;;;;;;;;1051141;28;20463;-56
2023/03/02 01:03:44;;;;;;;18.02;15.73;;;;;;;;;;1051247;28;20482;-56
2023/03/02 01:04:15;;;;;;;17.38;15.57;;;;;;;;;;1051310;28;20012;-55
2023/03/02 01:04:47;;;;;;;16.75;14.90;;;;;;;;;;1051314;28;20019;-56
2023/03/02 01:05:18;;;;;;;17.50;14.23;;;;;;;;;;1051125;28;20013;-55
2023/03/02 01:05:54;;;;;;;17.00;15.20;;;;;;;;;;1051287;28;20110;-56
2023/03/02 01:06:25;;;;;;;17.42;15.10;;;;;;;;;;1051122;28;20020;-55
2023/03/02 01:07:00;;;;;;;17.38;15.57;;;;;;;;;;1051195;28;20058;-56
2023/03/02 01:07:31;;;;;;;17.58;15.68;;;;;;;;;;1051195;28;20119;-55
2023/03/02 01:08:02;;;;;;;17.40;15.32;;;;;;;;;;1051401;28;20020;-55
2023/03/02 01:08:33;;;;;;;17.52;15.73;;;;;;;;;;1051024;28;20012;-56
2023/03/02 01:09:04;;;;;;;17.92;15.98;;;;;;;;;;1051191;28;20024;-55
2023/03/02 01:09:35;;;;;;;16.45;14.68;;;;;;;;;;1051143;28;20115;-56
2023/03/02 01:10:06;;;;;;;17.65;15.73;;;;;;;;;;1051396;28;20039;-56
2023/03/02 01:10:38;;;;;;;16.45;14.68;;;;;;;;;;1051247;28;20099;-55
2023/03/02 01:11:12;;;;;;;16.90;15.13;;;;;;;;;;1051308;28;20612;-56
2023/03/02 01:11:43;;;;;;;17.35;15.43;;;;;;;;;;1051494;28;20020;-54
2023/03/02 01:12:15;;;;;;;18.92;16.20;;;;;;;;;;1051097;28;20035;-56
2023/03/02 01:12:46;;;;;;;19.25;16.90;;;;;;;;;;1051368;28;20041;-56
2023/03/02 01:13:17;;;;;;;18.15;15.63;;;;;;;;;;1051592;28;20085;-56
2023/03/02 01:13:49;;;;;;;17.13;15.32;;;;;;;;;;1051306;28;20069;-55
2023/03/02 01:14:20;;;;;;;17.65;15.60;;;;;;;;;;1050153;28;20076;-55
2023/03/02 01:14:51;;;;;;;18.08;16.17;;;;;;;;;;1047301;28;20089;-55
2023/03/02 01:15:22;;;;;;;16.25;14.43;;;;;;;;;;1049340;28;20466;-55
2023/03/02 01:16:01;;;;;;;17.42;15.63;;;;;;;;;;1049566;28;20107;-56
2023/03/02 01:16:32;;;;;;;18.38;15.63;;;;;;;;;;1047128;28;20031;-55
2023/03/02 01:17:04;;;;;;;17.08;15.27;;;;;;;;;;1049512;28;20028;-55
2023/03/02 01:17:35;;;;;;;17.50;15.65;;;;;;;;;;1051273;28;20035;-55
2023/03/02 01:18:06;;;;;;;16.80;15.00;;;;;;;;;;1051608;28;20051;-56
2023/03/02 01:18:38;;;;;;;16.42;14.68;;;;;;;;;;1051113;28;20019;-55
2023/03/02 01:19:09;;;;;;;17.80;15.90;;;;;;;;;;1051380;28;20075;-56
2023/03/02 01:19:40;;;;;;;17.63;15.43;;;;;;;;;;1051433;28;20016;-56
2023/03/02 01:20:12;;;;;;;17.30;15.25;;;;;;;;;;1051452;28;20020;-54
2023/03/02 01:20:43;;;;;;;18.33;16.38;;;;;;;;;;1050742;28;20018;-57
2023/03/02 01:21:15;;;;;;;18.85;15.75;;;;;;;;;;1051366;28;20028;-56
2023/03/02 01:21:46;;;;;;;16.73;14.93;;;;;;;;;;1051339;28;20020;-55
2023/03/02 01:22:17;;;;;;;17.77;15.88;;;;;;;;;;1051543;28;20149;-56
2023/03/02 01:22:48;;;;;;;19.63;17.10;;;;;;;;;;1048498;28;20016;-56
2023/03/02 01:23:19;;;;;;;17.02;15.23;;;;;;;;;;1047290;28;20355;-55
2023/03/02 01:23:50;;;;;;;18.00;15.60;;;;;;;;;;1049249;28;20091;-56
2023/03/02 01:24:21;;;;;;;18.27;16.17;;;;;;;;;;1051429;28;20363;-55
2023/03/02 01:24:52;;;;;;;18.67;15.93;;;;;;;;;;1051365;28;20742;-56
2023/03/02 01:25:23;;;;;;;18.95;16.60;;;;;;;;;;1051321;28;20031;-56
2023/03/02 01:25:54;;;;;;;18.38;16.38;;;;;;;;;;1051220;28;20592;-56
2023/03/02 01:26:25;;;;;;;18.60;16.65;;;;;;;;;;1051355;28;20394;-55
2023/03/02 01:26:56;;;;;;;18.55;15.90;;;;;;;;;;1050467;28;20483;-55
2023/03/02 01:27:27;;;;;;;18.35;16.38;;;;;;;;;;1047009;28;20020;-56
2023/03/02 01:27:58;;;;;;;17.63;15.27;;;;;;;;;;1047295;28;20016;-54
2023/03/02 01:28:29;;;;;;;17.58;15.77;;;;;;;;;;1048426;28;20519;-55
2023/03/02 01:29:00;;;;;;;16.63;14.82;;;;;;;;;;1051214;28;20493;-56
2023/03/02 01:29:31;;;;;;;19.48;16.25;;;;;;;;;;1051170;28;20024;-55
2023/03/02 01:30:03;;;;;;;17.75;15.85;;;;;;;;;;1051543;28;20099;-56
2023/03/02 01:30:33;;;;;;;17.85;15.88;;;;;;;;;;1051021;28;20031;-56
2023/03/02 01:31:05;;;;;;;18.92;16.98;;;;;;;;;;1051103;28;20016;-56
2023/03/02 01:31:35;;;;;;;17.65;15.75;;;;;;;;;;1051374;28;20035;-55
2023/03/02 01:32:07;;;;;;;16.58;14.77;;;;;;;;;;1051265;28;20016;-55
2023/03/02 01:32:38;;;;;;;18.50;16.42;;;;;;;;;;1051415;28;20587;-56
2023/03/02 01:33:09;;;;;;;17.50;15.65;;;;;;;;;;1051294;28;20524;-56
2023/03/02 01:33:40;;;;;;;18.00;15.43;;;;;;;;;;1051132;28;20043;-55
2023/03/02 01:34:11;;;;;;;18.15;15.23;;;;;;;;;;1051468;28;20554;-56
2023/03/02 01:34:42;;;;;;;18.77;16.63;;;;;;;;;;1051312;28;20647;-55
2023/03/02 01:35:13;;;;;;;16.73;14.93;;;;;;;;;;1048576;28;20073;-56
2023/03/02 01:35:45;;;;;;;17.80;15.60;;;;;;;;;;1051102;28;20090;-55
2023/03/02 01:36:16;;;;;;;18.33;16.23;;;;;;;;;;1051294;28;20704;-55
2023/03/02 01:36:47;;;;;;;17.48;15.63;;;;;;;;;;1051079;28;20093;-56
2023/03/02 01:37:19;;;;;;;17.85;15.88;;;;;;;;;;1051332;28;20023;-56
2023/03/02 01:37:50;;;;;;;17.48;15.05;;;;;;;;;;1051122;28;20079;-55
2023/03/02 01:38:21;;;;;;;18.98;16.65;;;;;;;;;;1051469;28;20077;-54
2023/03/02 01:38:53;;;;;;;19.85;17.60;;;;;;;;;;1051092;28;20017;-56
2023/03/02 01:39:23;;;;;;;18.48;16.25;;;;;;;;;;1051503;28;20463;-56
2023/03/02 01:39:54;;;;;;;19.00;15.85;;;;;;;;;;1046587;28;20507;-55
2023/03/02 01:40:25;;;;;;;19.75;17.60;;;;;;;;;;1046726;28;20017;-55
2023/03/02 01:40:56;;;;;;;17.25;15.43;;;;;;;;;;1046715;28;20656;-56
2023/03/02 01:41:27;;;;;;;17.42;15.35;;;;;;;;;;1047141;28;20399;-55
2023/03/02 01:41:58;;;;;;;18.25;16.20;;;;;;;;;;1051259;28;20304;-56
2023/03/02 01:42:33;;;;;;;16.58;14.60;;;;;;;;;;1051310;28;20474;-56
2023/03/02 01:43:10;;;;;;;19.15;17.05;;;;;;;;;;1051147;28;20016;-56
2023/03/02 01:43:41;;;;;;;18.27;15.85;;;;;;;;;;1051330;28;20016;-56
2023/03/02 01:44:32;;;;;;;18.90;16.70;;;;;;;;;;1051190;28;20020;-55
2023/03/02 01:45:03;;;;;;;17.15;14.90;;;;;;;;;;1039409;28;20022;-56
2023/03/02 01:45:43;;;;;;;16.33;14.60;;;;;;;;;;1047130;28;20019;-56
2023/03/02 01:46:14;;;;;;;18.48;15.48;;;;;;;;;;1047071;28;20056;-55
2023/03/02 01:46:45;;;;;;;18.10;16.15;;;;;;;;;;1050916;28;20016;-56
2023/03/02 01:47:16;;;;;;;19.00;16.52;;;;;;;;;;1047096;28;20486;-56
2023/03/02 01:47:47;;;;;;;17.67;15.80;;;;;;;;;;1047114;28;20525;-56
2023/03/02 01:48:21;;;;;;;18.30;16.40;;;;;;;;;;1047166;28;20016;-55
2023/03/02 01:48:52;;;;;;;16.08;14.38;;;;;;;;;;1047108;28;20021;-56
2023/03/02 01:49:23;;;;;;;20.80;17.45;;;;;;;;;;1047106;28;20013;-56
2023/03/02 01:49:59;;;;;;;18.48;15.75;;;;;;;;;;1047614;28;20051;-55
2023/03/02 01:50:31;;;;;;;17.92;16.02;;;;;;;;;;1047265;28;20063;-56
2023/03/02 01:51:02;;;;;;;17.48;15.57;;;;;;;;;;1047145;28;20027;-56
2023/03/02 01:51:36;;;;;;;17.77;15.52;;;;;;;;;;1050508;28;20102;-55
2023/03/02 01:52:09;;;;;;;18.15;15.88;;;;;;;;;;1051151;28;20032;-56
2023/03/02 01:52:40;;;;;;;17.95;16.05;;;;;;;;;;1051216;28;20016;-56
2023/03/02 01:53:11;;;;;;;17.88;15.40;;;;;;;;;;1051257;28;20024;-56
2023/03/02 01:53:45;;;;;;;17.85;15.65;;;;;;;;;;1051109;28;20016;-56
2023/03/02 01:54:21;;;;;;;17.92;16.02;;;;;;;;;;1051410;28;20103;-56
2023/03/02 01:54:55;;;;;;;17.05;15.10;;;;;;;;;;1051492;28;20023;-56
2023/03/02 01:55:28;;;;;;;18.05;16.13;;;;;;;;;;1051017;28;20039;-55
2023/03/02 01:55:59;;;;;;;18.45;16.15;;;;;;;;;;1051438;28;20020;-55
2023/03/02 01:56:33;;;;;;;18.60;15.73;;;;;;;;;;1051149;28;20016;-56
2023/03/02 01:57:05;;;;;;;17.98;15.88;;;;;;;;;;1051245;28;20016;-55
2023/03/02 01:57:42;;;;;;;20.35;16.92;;;;;;;;;;1051158;28;20031;-55
2023/03/02 01:58:14;;;;;;;17.52;15.63;;;;;;;;;;1051583;28;20565;-55
2023/03/02 01:58:46;;;;;;;17.75;15.82;;;;;;;;;;1050885;28;20452;-56
2023/03/02 01:59:19;;;;;;;17.98;15.55;;;;;;;;;;1051387;28;20027;-56
2023/03/02 01:59:52;;;;;;;19.25;15.63;;;;;;;;;;1049879;28;20038;-56
2023/03/02 02:00:26;;;;;;;17.02;15.23;;;;;;;;;;1049346;28;20016;-55
2023/03/02 02:00:57;;;;;;;19.33;17.17;;;;;;;;;;1051329;28;20028;-56
2023/03/02 02:01:29;;;;;;;17.77;15.90;;;;;;;;;;1051295;28;20020;-56
2023/03/02 02:02:03;;;;;;;19.58;17.25;;;;;;;;;;1048944;28;20028;-55
2023/03/02 02:02:35;;;;;;;18.65;15.82;;;;;;;;;;1051153;28;20016;-56
2023/03/02 02:03:09;;;;;;;17.67;15.73;;;;;;;;;;1051178;28;20060;-56
2023/03/02 02:03:44;;;;;;;19.17;16.52;;;;;;;;;;1051190;28;20027;-55
2023/03/02 02:04:16;;;;;;;17.00;14.98;;;;;;;;;;1051152;28;20016;-55
2023/03/02 02:04:48;;;;;;;18.90;16.17;;;;;;;;;;1048287;28;20031;-56
2023/03/02 02:05:21;;;;;;;19.55;16.95;;;;;;;;;;1048880;28;20062;-56
2023/03/02 02:05:59;;;;;;;17.10;15.02;;;;;;;;;;1051186;28;20101;-56
2023/03/02 02:06:37;;;;;;;18.58;15.80;;;;;;;;;;1050833;28;20085;-56
2023/03/02 02:07:09;;;;;;;18.55;16.60;;;;;;;;;;1050201;28;20469;-56
2023/03/02 02:07:40;;;;;;;19.67;16.27;;;;;;;;;;1051327;28;20020;-55
2023/03/02 02:08:11;;;;;;;19.38;16.33;;;;;;;;;;1051089;28;20012;-55
2023/03/02 02:08:42;;;;;;;21.17;17.08;;;;;;;;;;1051306;28;20020;-56
2023/03/02 02:09:15;;;;;;;19.38;16.67;;;;;;;;;;1050925;28;20020;-56
2023/03/02 02:09:47;;;;;;;17.52;15.23;;;;;;;;;;1051353;28;20047;-56
2023/03/02 02:10:19;;;;;;;18.70;16.70;;;;;;;;;;1051152;28;20012;-56
2023/03/02 02:10:50;;;;;;;18.20;15.85;;;;;;;;;;1050931;28;20073;-55
2023/03/02 02:11:21;;;;;;;18.10;16.20;;;;;;;;;;1051179;28;20008;-56
2023/03/02 02:11:52;;;;;;;18.50;16.38;;;;;;;;;;1051347;28;20379;-55
2023/03/02 02:12:23;;;;;;;17.92;16.02;;;;;;;;;;1051024;28;20023;-55
2023/03/02 02:12:54;;;;;;;18.52;16.63;;;;;;;;;;1051382;28;20103;-55
2023/03/02 02:13:25;;;;;;;18.88;16.35;;;;;;;;;;1051095;28;20016;-55
2023/03/02 02:13:58;;;;;;;18.08;16.02;;;;;;;;;;1050774;28;20069;-56
2023/03/02 02:15:03;;;;;;;19.05;17.05;;;;;;;;;;1049686;28;20043;-55
2023/03/02 02:15:34;;;;;;;18.65;15.65;;;;;;;;;;1050960;28;20047;-55
2023/03/02 02:16:06;;;;;;;19.38;16.50;;;;;;;;;;1051329;28;20039;-55
2023/03/02 02:16:38;;;;;;;17.88;15.95;;;;;;;;;;1051321;28;20391;-55
2023/03/02 02:17:09;;;;;;;18.13;16.15;;;;;;;;;;1051153;28;20056;-56
2023/03/02 02:17:40;;;;;;;17.95;15.77;;;;;;;;;;1050852;28;20051;-55
2023/03/02 02:18:11;;;;;;;17.80;15.90;;;;;;;;;;1051504;28;20452;-55
2023/03/02 02:18:42;;;;;;;19.48;16.38;;;;;;;;;;1050951;28;20016;-55
2023/03/02 02:19:22;;;;;;;19.27;16.80;;;;;;;;;;1051291;28;20024;-56
2023/03/02 02:20:13;;;;;;;18.08;15.30;;;;;;;;;;1049719;28;20576;-56
2023/03/02 02:20:45;;;;;;;18.48;15.75;;;;;;;;;;1046501;28;20020;-55
2023/03/02 02:21:17;;;;;;;18.58;15.73;;;;;;;;;;1051169;28;20028;-55
2023/03/02 02:21:48;;;;;;;17.08;14.77;;;;;;;;;;1050977;28;20036;-54
2023/03/02 02:22:25;;;;;;;18.30;15.60;;;;;;;;;;1051374;28;20028;-55
2023/03/02 02:23:15;;;;;;;18.25;16.27;;;;;;;;;;1046574;28;20468;-55
2023/03/02 02:23:54;;;;;;;18.85;15.30;;;;;;;;;;1046541;28;20592;-56
2023/03/02 02:24:29;;;;;;;17.63;14.57;;;;;;;;;;1044853;28;20035;-56
2023/03/02 02:25:03;;;;;;;17.20;15.38;;;;;;;;;;1046942;28;20086;-56
2023/03/02 02:25:54;;;;;;;17.58;15.23;;;;;;;;;;1050086;28;20032;-55
2023/03/02 02:26:37;;;;;;;17.25;15.30;;;;;;;;;;1047037;28;20715;-55
2023/03/02 02:27:09;;;;;;;18.73;15.63;;;;;;;;;;1048836;28;20077;-55
2023/03/02 02:27:40;;;;;;;20.00;17.10;;;;;;;;;;1051092;28;20551;-55
2023/03/02 02:28:13;;;;;;;17.73;15.43;;;;;;;;;;1051114;28;20028;-56
2023/03/02 02:28:56;;;;;;;18.33;16.05;;;;;;;;;;1047551;28;20038;-56
2023/03/02 02:29:31;;;;;;;21.33;18.48;;;;;;;;;;1051063;28;20535;-55
2023/03/02 02:30:04;;;;;;;17.40;15.27;;;;;;;;;;1051503;28;20099;-55
2023/03/02 02:30:36;;;;;;;21.33;17.88;;;;;;;;;;1051191;28;20063;-55
2023/03/02 02:31:25;;;;;;;17.80;15.90;;;;;;;;;;1051014;28;20722;-56
2023/03/02 02:32:19;;;;;;;17.90;15.68;;;;;;;;;;1051395;28;20032;-56
2023/03/02 02:32:51;;;;;;;20.38;16.02;;;;;;;;;;1042833;28;20067;-55
2023/03/02 02:33:24;;;;;;;16.98;15.15;;;;;;;;;;1051007;28;20016;-56
2023/03/02 02:33:57;;;;;;;18.27;16.25;;;;;;;;;;1051419;28;20398;-56
2023/03/02 02:34:31;;;;;;;18.20;16.02;;;;;;;;;;1050619;28;20471;-56
2023/03/02 02:35:05;;;;;;;19.42;16.20;;;;;;;;;;1047119;28;20058;-55
2023/03/02 02:35:37;;;;;;;17.77;15.80;;;;;;;;;;1049147;28;20047;-56
2023/03/02 02:36:12;;;;;;;18.80;15.65;;;;;;;;;;1051202;28;20016;-55
2023/03/02 02:36:46;;;;;;;19.88;16.65;;;;;;;;;;1051172;28;20046;-56
2023/03/02 02:37:25;;;;;;;19.98;15.82;;;;;;;;;;1051156;28;20044;-55
2023/03/02 02:38:00;;;;;;;18.88;16.73;;;;;;;;;;1051165;28;20426;-55
2023/03/02 02:38:33;;;;;;;17.08;15.27;;;;;;;;;;1051103;28;20675;-55
2023/03/02 02:39:05;;;;;;;20.33;16.83;;;;;;;;;;1051161;28;20086;-56
2023/03/02 02:39:38;;;;;;;18.10;16.08;;;;;;;;;;1051059;28;20031;-56
2023/03/02 02:40:13;;;;;;;17.02;14.95;;;;;;;;;;1051037;28;20108;-56
2023/03/02 02:40:50;;;;;;;17.25;15.05;;;;;;;;;;1048641;28;20384;-57
2023/03/02 02:41:24;;;;;;;16.75;14.93;;;;;;;;;;1050859;28;20016;-56
2023/03/02 02:41:56;;;;;;;19.83;15.88;;;;;;;;;;1051199;28;20023;-55
2023/03/02 02:42:29;;;;;;;18.73;16.33;;;;;;;;;;1051034;28;20729;-55
2023/03/02 02:43:00;;;;;;;19.13;16.90;;;;;;;;;;1047038;28;20031;-56
2023/03/02 02:43:32;;;;;;;16.98;15.13;;;;;;;;;;1047031;28;20031;-56
2023/03/02 02:44:03;;;;;;;17.75;15.77;;;;;;;;;;1048755;28;20020;-56
2023/03/02 02:44:34;;;;;;;18.83;16.27;;;;;;;;;;1049798;28;20024;-55
2023/03/02 02:45:07;;;;;;;17.85;15.63;;;;;;;;;;1050698;28;20033;-56
2023/03/02 02:45:38;;;;;;;19.48;15.48;;;;;;;;;;1051185;28;20035;-56
2023/03/02 02:46:10;;;;;;;18.80;16.33;;;;;;;;;;1051021;28;20031;-56
2023/03/02 02:46:41;;;;;;;17.00;15.23;;;;;;;;;;1050991;28;20030;-55
2023/03/02 02:47:21;;;;;;;19.13;16.58;;;;;;;;;;1051068;28;20491;-56
2023/03/02 02:47:53;;;;;;;18.15;15.80;;;;;;;;;;1051507;28;20024;-56
2023/03/02 02:48:25;;;;;;;18.05;15.13;;;;;;;;;;1051828;28;20047;-55
2023/03/02 02:48:56;;;;;;;18.00;15.13;;;;;;;;;;1051897;28;20024;-55
2023/03/02 02:49:29;;;;;;;19.13;16.25;;;;;;;;;;1051341;28;20024;-56
2023/03/02 02:50:01;;;;;;;17.70;15.70;;;;;;;;;;1052163;28;20030;-55
2023/03/02 02:50:33;;;;;;;17.08;15.25;;;;;;;;;;1051895;28;20062;-56
2023/03/02 02:51:06;;;;;;;18.92;16.17;;;;;;;;;;1051846;28;20023;-55
2023/03/02 02:51:37;;;;;;;17.05;14.82;;;;;;;;;;1047747;28;20039;-55
2023/03/02 02:52:10;;;;;;;17.83;15.50;;;;;;;;;;1047832;28;20082;-55
2023/03/02 02:52:42;;;;;;;18.92;16.77;;;;;;;;;;1051619;28;20119;-56
2023/03/02 02:53:15;;;;;;;17.88;15.23;;;;;;;;;;1051858;28;20056;-55
2023/03/02 02:53:49;;;;;;;18.65;16.58;;;;;;;;;;1052204;28;20024;-55
2023/03/02 02:54:20;;;;;;;18.65;16.67;;;;;;;;;;1051721;28;20081;-55
2023/03/02 02:54:53;;;;;;;20.27;16.25;;;;;;;;;;1052112;28;20052;-55
2023/03/02 02:55:24;;;;;;;17.13;15.27;;;;;;;;;;1051923;28;20018;-54
2023/03/02 02:55:57;;;;;;;18.30;15.85;;;;;;;;;;1051995;28;20024;-55
2023/03/02 02:56:32;;;;;;;18.10;16.20;;;;;;;;;;1051787;28;20031;-56
2023/03/02 02:57:04;;;;;;;17.52;15.65;;;;;;;;;;1052172;28;20075;-55
2023/03/02 02:57:35;;;;;;;18.42;15.90;;;;;;;;;;1051536;28;20031;-54
2023/03/02 02:58:29;;;;;;;16.80;15.00;;;;;;;;;;1052156;28;20119;-55
2023/03/02 02:59:23;;;;;;;17.33;15.45;;;;;;;;;;1043767;28;20100;-55
2023/03/02 02:59:55;;;;;;;18.45;15.65;;;;;;;;;;1042230;28;20044;-55
2023/03/02 03:00:26;;;;;;;18.10;16.15;;;;;;;;;;1047670;28;20027;-55
2023/03/02 03:00:58;;;;;;;20.08;15.25;;;;;;;;;;1048293;28;20021;-55
2023/03/02 03:01:29;;;;;;;17.90;15.82;;;;;;;;;;1051828;28;20106;-55
2023/03/02 03:02:00;;;;;;;18.10;16.20;;;;;;;;;;1052106;28;20020;-56
2023/03/02 03:02:34;;;;;;;17.85;15.57;;;;;;;;;;1051926;28;20020;-55
2023/03/02 03:03:27;;;;;;;19.10;16.45;;;;;;;;;;1047871;28;20808;-55
2023/03/02 03:04:00;;;;;;;21.48;16.90;;;;;;;;;;1047896;28;20384;-55
2023/03/02 03:04:32;;;;;;;19.35;15.95;;;;;;;;;;1051669;28;20094;-54
2023/03/02 03:05:03;;;;;;;20.00;16.38;;;;;;;;;;1052008;28;20054;-55
2023/03/02 03:05:33;;;;;;;19.02;15.88;;;;;;;;;;1051946;28;20016;-56
2023/03/02 03:06:06;;;;;;;18.60;15.90;;;;;;;;;;1051858;28;20028;-55
2023/03/02 03:06:40;;;;;;;18.25;16.05;;;;;;;;;;1051955;28;20095;-55
2023/03/02 03:07:15;;;;;;;16.60;14.05;;;;;;;;;;1051895;28;20043;-55
2023/03/02 03:07:46;;;;;;;17.35;14.88;;;;;;;;;;1051744;28;20035;-55
2023/03/02 03:08:36;;;;;;;17.73;15.38;;;;;;;;;;1051978;28;20471;-55
2023/03/02 03:09:08;;;;;;;17.40;14.65;;;;;;;;;;1051857;28;20024;-55
2023/03/02 03:09:39;;;;;;;17.60;15.25;;;;;;;;;;1051778;28;20032;-55
2023/03/02 03:10:33;;;;;;;17.50;15.60;;;;;;;;;;1051988;28;20020;-55
2023/03/02 03:11:04;;;;;;;16.58;14.43;;;;;;;;;;1051580;28;20036;-55
2023/03/02 03:11:37;;;;;;;18.63;15.95;;;;;;;;;;1051967;28;20082;-55
2023/03/02 03:12:15;;;;;;;16.45;14.43;;;;;;;;;;1051938;28;20386;-54
2023/03/02 03:12:46;;;;;;;18.40;15.77;;;;;;;;;;1051704;28;20410;-54